createdAt,value
2023-02-19T00:00:01.636Z,7.3
2023-02-19T00:01:01.574Z,7.3
2023-02-19T00:02:01.680Z,7.3
2023-02-19T00:03:01.631Z,7.3
2023-02-19T00:04:01.599Z,7.2
2023-02-19T00:05:01.502Z,7.3
2023-02-19T00:06:01.381Z,7.3
2023-02-19T00:07:01.329Z,7.2
2023-02-19T00:08:02.267Z,7.2
2023-02-19T00:09:02.279Z,7.2
2023-02-19T00:10:02.236Z,7.2
2023-02-19T00:11:02.228Z,7.2
2023-02-19T00:12:02.176Z,7.1
2023-02-19T00:13:02.137Z,7.1
2023-02-19T00:14:02.072Z,7.1
2023-02-19T00:15:02.038Z,7.1
2023-02-19T00:16:02.118Z,7.2
2023-02-19T00:17:02.147Z,7.2
2023-02-19T00:18:02.120Z,7
2023-02-19T00:19:02.114Z,7
2023-02-19T00:20:02.029Z,7
2023-02-19T00:21:01.950Z,7.1
2023-02-19T00:22:01.833Z,7.1
2023-02-19T00:23:01.808Z,7.1
2023-02-19T00:24:01.780Z,7
2023-02-19T00:25:01.685Z,7.2
2023-02-19T00:26:16.172Z,7.1
2023-02-19T00:27:01.559Z,7.2
2023-02-19T00:28:01.442Z,7.1
2023-02-19T00:29:01.361Z,7.2
2023-02-19T00:30:01.356Z,7.1
2023-02-19T00:31:02.314Z,7.1
2023-02-19T00:32:01.592Z,7.1
2023-02-19T00:33:01.672Z,7.1
2023-02-19T00:34:01.558Z,7.1
2023-02-19T00:35:01.504Z,7.1
2023-02-19T00:36:01.403Z,7.1
2023-02-19T00:37:01.317Z,7
2023-02-19T00:38:02.274Z,6.9
2023-02-19T00:39:02.212Z,6.9
2023-02-19T00:40:02.340Z,6.9
2023-02-19T00:41:02.248Z,6.9
2023-02-19T00:42:02.164Z,6.9
2023-02-19T00:43:02.171Z,6.9
2023-02-19T00:44:02.168Z,6.9
2023-02-19T00:45:02.099Z,6.9
2023-02-19T00:46:02.083Z,7
2023-02-19T00:47:02.057Z,6.9
2023-02-19T00:48:02.066Z,7
2023-02-19T00:49:01.964Z,7
2023-02-19T00:50:01.920Z,6.9
2023-02-19T00:51:01.859Z,6.9
2023-02-19T00:52:01.828Z,6.9
2023-02-19T00:53:01.780Z,7
2023-02-19T00:54:01.725Z,7
2023-02-19T00:55:01.624Z,7
2023-02-19T00:56:01.528Z,6.9
2023-02-19T00:57:01.439Z,7
2023-02-19T00:58:01.339Z,6.9
2023-02-19T00:59:02.314Z,7
2023-02-19T01:00:02.343Z,7
2023-02-19T01:01:02.210Z,6.9
2023-02-19T01:02:02.166Z,7
2023-02-19T01:03:02.138Z,7
2023-02-19T01:04:02.099Z,7.1
2023-02-19T01:05:01.839Z,7.1
2023-02-19T01:06:01.724Z,7.1
2023-02-19T01:07:01.660Z,7.2
2023-02-19T01:08:01.561Z,7.1
2023-02-19T01:09:01.450Z,7.1
2023-02-19T01:10:01.349Z,7.1
2023-02-19T01:11:02.307Z,7
2023-02-19T01:12:02.309Z,7
2023-02-19T01:13:02.258Z,7
2023-02-19T01:14:02.217Z,7
2023-02-19T01:15:02.217Z,7
2023-02-19T01:16:02.172Z,7.1
2023-02-19T01:17:01.437Z,7
2023-02-19T01:18:01.369Z,6.9
2023-02-19T01:19:01.324Z,6.9
2023-02-19T01:20:02.310Z,6.9
2023-02-19T01:21:02.314Z,6.9
2023-02-19T01:22:02.255Z,6.9
2023-02-19T01:23:02.281Z,6.8
2023-02-19T01:24:02.238Z,6.8
2023-02-19T01:25:02.225Z,6.9
2023-02-19T01:26:02.200Z,6.8
2023-02-19T01:27:02.161Z,6.8
2023-02-19T01:28:02.153Z,6.8
2023-02-19T01:29:02.058Z,6.9
2023-02-19T01:30:02.106Z,6.9
2023-02-19T01:31:02.118Z,6.9
2023-02-19T01:32:02.315Z,6.9
2023-02-19T01:33:01.335Z,6.8
2023-02-19T01:34:02.295Z,6.8
2023-02-19T01:35:02.274Z,6.9
2023-02-19T01:36:02.223Z,6.9
2023-02-19T01:37:02.193Z,6.8
2023-02-19T01:38:02.132Z,6.8
2023-02-19T01:39:02.128Z,6.8
2023-02-19T01:40:02.077Z,6.7
2023-02-19T01:41:02.016Z,6.8
2023-02-19T01:42:01.934Z,6.8
2023-02-19T01:43:01.856Z,6.8
2023-02-19T01:44:01.930Z,6.8
2023-02-19T01:45:01.709Z,6.8
2023-02-19T01:46:01.603Z,6.8
2023-02-19T01:47:01.432Z,6.8
2023-02-19T01:48:01.356Z,6.8
2023-02-19T01:49:02.268Z,6.8
2023-02-19T01:50:02.244Z,6.7
2023-02-19T01:51:02.174Z,6.7
2023-02-19T01:52:02.173Z,6.9
2023-02-19T01:53:02.102Z,6.7
2023-02-19T01:54:02.031Z,6.8
2023-02-19T01:55:02.036Z,6.8
2023-02-19T01:56:01.941Z,6.8
2023-02-19T01:57:01.921Z,6.8
2023-02-19T01:58:01.832Z,6.9
2023-02-19T01:59:01.748Z,6.8
2023-02-19T02:00:01.629Z,6.8
2023-02-19T02:01:01.560Z,6.8
2023-02-19T02:02:01.724Z,6.8
2023-02-19T02:03:01.596Z,6.8
2023-02-19T02:04:01.512Z,6.7
2023-02-19T02:05:01.419Z,6.7
2023-02-19T02:06:01.356Z,6.7
2023-02-19T02:07:02.303Z,6.8
2023-02-19T02:08:02.231Z,6.7
2023-02-19T02:09:02.227Z,6.7
2023-02-19T02:10:02.160Z,6.7
2023-02-19T02:11:02.126Z,6.8
2023-02-19T02:12:02.134Z,6.7
2023-02-19T02:13:02.089Z,6.7
2023-02-19T02:14:02.054Z,6.7
2023-02-19T02:15:02.067Z,6.7
2023-02-19T02:16:01.997Z,6.7
2023-02-19T02:17:01.885Z,6.8
2023-02-19T02:18:01.840Z,6.8
2023-02-19T02:19:01.859Z,6.8
2023-02-19T02:20:01.727Z,6.8
2023-02-19T02:21:01.666Z,6.9
2023-02-19T02:22:01.549Z,6.8
2023-02-19T02:23:01.455Z,6.9
2023-02-19T02:24:01.365Z,6.9
2023-02-19T02:25:02.298Z,6.9
2023-02-19T02:26:02.339Z,7
2023-02-19T02:27:02.177Z,6.9
2023-02-19T02:28:02.158Z,6.9
2023-02-19T02:29:02.084Z,6.9
2023-02-19T02:30:02.156Z,6.8
2023-02-19T02:31:02.117Z,6.8
2023-02-19T02:32:02.249Z,6.8
2023-02-19T02:33:02.261Z,6.9
2023-02-19T02:34:02.219Z,6.9
2023-02-19T02:35:02.199Z,6.8
2023-02-19T02:36:02.184Z,6.8
2023-02-19T02:37:02.121Z,6.7
2023-02-19T02:38:02.017Z,6.8
2023-02-19T02:39:01.961Z,6.8
2023-02-19T02:40:01.974Z,6.7
2023-02-19T02:41:01.933Z,6.7
2023-02-19T02:42:01.919Z,6.8
2023-02-19T02:43:01.867Z,6.8
2023-02-19T02:44:01.782Z,6.8
2023-02-19T02:45:01.753Z,6.7
2023-02-19T02:46:01.872Z,6.8
2023-02-19T02:47:01.896Z,6.7
2023-02-19T02:48:01.870Z,6.7
2023-02-19T02:49:01.825Z,6.7
2023-02-19T02:50:01.715Z,6.7
2023-02-19T02:51:01.686Z,6.7
2023-02-19T02:52:01.577Z,6.8
2023-02-19T02:53:01.499Z,6.7
2023-02-19T02:54:01.406Z,6.7
2023-02-19T02:55:02.712Z,6.8
2023-02-19T02:56:01.593Z,6.8
2023-02-19T02:57:01.488Z,6.8
2023-02-19T02:58:01.399Z,6.8
2023-02-19T02:59:01.335Z,6.8
2023-02-19T03:00:02.278Z,6.7
2023-02-19T03:01:02.307Z,6.8
2023-02-19T03:02:01.402Z,6.8
2023-02-19T03:03:01.335Z,6.8
2023-02-19T03:04:02.284Z,6.9
2023-02-19T03:05:02.231Z,6.8
2023-02-19T03:06:02.167Z,6.8
2023-02-19T03:07:02.053Z,6.8
2023-02-19T03:08:02.030Z,6.9
2023-02-19T03:09:02.004Z,6.8
2023-02-19T03:10:01.930Z,6.9
2023-02-19T03:11:01.884Z,6.8
2023-02-19T03:12:01.845Z,6.8
2023-02-19T03:13:01.766Z,6.8
2023-02-19T03:14:01.719Z,6.9
2023-02-19T03:15:01.685Z,6.9
2023-02-19T03:16:01.580Z,6.9
2023-02-19T03:17:01.545Z,6.8
2023-02-19T03:18:01.464Z,6.8
2023-02-19T03:19:01.394Z,6.8
2023-02-19T03:20:01.294Z,6.8
2023-02-19T03:21:02.257Z,6.9
2023-02-19T03:22:02.220Z,6.9
2023-02-19T03:23:02.205Z,6.9
2023-02-19T03:24:02.139Z,6.9
2023-02-19T03:25:02.164Z,6.8
2023-02-19T03:26:02.157Z,6.8
2023-02-19T03:27:02.121Z,6.8
2023-02-19T03:28:02.140Z,6.8
2023-02-19T03:29:02.140Z,6.7
2023-02-19T03:30:02.171Z,6.9
2023-02-19T03:31:02.158Z,6.8
2023-02-19T03:32:02.209Z,6.8
2023-02-19T03:33:02.279Z,6.6
2023-02-19T03:34:02.226Z,6.7
2023-02-19T03:35:02.169Z,6.6
2023-02-19T03:36:02.131Z,6.8
2023-02-19T03:37:02.110Z,6.9
2023-02-19T03:38:02.117Z,6.8
2023-02-19T03:39:02.085Z,6.8
2023-02-19T03:40:02.062Z,6.8
2023-02-19T03:41:01.951Z,6.8
2023-02-19T03:42:01.912Z,6.8
2023-02-19T03:43:01.855Z,6.8
2023-02-19T03:44:01.755Z,6.7
2023-02-19T03:45:01.685Z,6.7
2023-02-19T03:46:01.697Z,6.7
2023-02-19T03:47:01.846Z,6.6
2023-02-19T03:48:01.695Z,6.7
2023-02-19T03:49:01.592Z,6.6
2023-02-19T03:50:01.481Z,6.7
2023-02-19T03:51:01.390Z,6.7
2023-02-19T03:52:01.348Z,6.7
2023-02-19T03:53:02.318Z,6.6
2023-02-19T03:54:02.245Z,6.8
2023-02-19T03:55:02.257Z,6.8
2023-02-19T03:56:02.210Z,6.8
2023-02-19T03:57:02.205Z,6.8
2023-02-19T03:58:02.126Z,6.8
2023-02-19T03:59:02.080Z,6.8
2023-02-19T04:00:02.044Z,6.8
2023-02-19T04:01:02.020Z,6.8
2023-02-19T04:02:01.852Z,6.7
2023-02-19T04:03:01.737Z,6.8
2023-02-19T04:04:01.643Z,6.7
2023-02-19T04:05:01.574Z,6.7
2023-02-19T04:06:01.428Z,6.7
2023-02-19T04:07:01.377Z,6.7
2023-02-19T04:08:01.339Z,6.8
2023-02-19T04:09:02.280Z,6.7
2023-02-19T04:10:02.289Z,6.7
2023-02-19T04:11:02.236Z,6.7
2023-02-19T04:12:02.224Z,6.8
2023-02-19T04:13:02.107Z,6.8
2023-02-19T04:14:02.073Z,6.7
2023-02-19T04:15:02.021Z,6.6
2023-02-19T04:16:01.945Z,6.5
2023-02-19T04:17:01.942Z,6.5
2023-02-19T04:18:01.886Z,6.5
2023-02-19T04:19:01.828Z,6.5
2023-02-19T04:20:01.736Z,6.5
2023-02-19T04:21:01.644Z,6.5
2023-02-19T04:22:01.569Z,6.6
2023-02-19T04:23:01.525Z,6.6
2023-02-19T04:24:01.411Z,6.5
2023-02-19T04:25:01.318Z,6.5
2023-02-19T04:26:02.309Z,6.5
2023-02-19T04:27:02.317Z,6.5
2023-02-19T04:28:02.244Z,6.6
2023-02-19T04:29:02.233Z,6.6
2023-02-19T04:30:02.238Z,6.5
2023-02-19T04:31:02.184Z,6.4
2023-02-19T04:32:02.289Z,6.5
2023-02-19T04:33:02.263Z,6.6
2023-02-19T04:34:02.231Z,6.6
2023-02-19T04:35:02.201Z,6.6
2023-02-19T04:36:02.129Z,6.6
2023-02-19T04:37:02.070Z,6.5
2023-02-19T04:38:02.028Z,6.5
2023-02-19T04:39:01.974Z,6.5
2023-02-19T04:40:01.990Z,6.5
2023-02-19T04:41:01.931Z,6.5
2023-02-19T04:42:01.858Z,6.6
2023-02-19T04:43:01.750Z,6.5
2023-02-19T04:44:01.705Z,6.6
2023-02-19T04:45:01.634Z,6.5
2023-02-19T04:46:01.585Z,6.5
2023-02-19T04:47:01.514Z,6.5
2023-02-19T04:48:01.530Z,6.6
2023-02-19T04:49:01.374Z,6.6
2023-02-19T04:50:02.307Z,6.5
2023-02-19T04:51:02.227Z,6.6
2023-02-19T04:52:02.225Z,6.6
2023-02-19T04:53:02.211Z,6.5
2023-02-19T04:54:02.165Z,6.7
2023-02-19T04:55:02.116Z,6.6
2023-02-19T04:56:02.122Z,6.7
2023-02-19T04:57:02.079Z,6.6
2023-02-19T04:58:02.080Z,6.6
2023-02-19T04:59:02.097Z,6.7
2023-02-19T05:00:02.009Z,6.6
2023-02-19T05:01:01.890Z,6.6
2023-02-19T05:02:01.726Z,6.6
2023-02-19T05:03:01.636Z,6.7
2023-02-19T05:04:01.619Z,6.6
2023-02-19T05:05:01.538Z,6.6
2023-02-19T05:06:01.414Z,6.7
2023-02-19T05:07:01.347Z,6.6
2023-02-19T05:08:02.293Z,6.6
2023-02-19T05:09:02.280Z,6.7
2023-02-19T05:10:02.198Z,6.8
2023-02-19T05:11:02.118Z,6.6
2023-02-19T05:12:02.027Z,6.6
2023-02-19T05:13:01.974Z,6.6
2023-02-19T05:14:01.969Z,6.6
2023-02-19T05:15:01.961Z,6.6
2023-02-19T05:16:01.923Z,6.7
2023-02-19T05:17:02.091Z,6.6
2023-02-19T05:18:02.088Z,6.6
2023-02-19T05:19:02.029Z,6.6
2023-02-19T05:20:02.015Z,6.6
2023-02-19T05:21:02.011Z,6.6
2023-02-19T05:22:01.986Z,6.7
2023-02-19T05:23:01.864Z,6.7
2023-02-19T05:24:01.841Z,6.6
2023-02-19T05:25:01.792Z,6.7
2023-02-19T05:26:01.743Z,6.7
2023-02-19T05:27:01.623Z,6.7
2023-02-19T05:28:01.576Z,6.6
2023-02-19T05:29:01.501Z,6.6
2023-02-19T05:30:01.430Z,6.7
2023-02-19T05:31:01.375Z,6.7
2023-02-19T05:32:01.455Z,6.7
2023-02-19T05:33:01.421Z,6.7
2023-02-19T05:34:01.334Z,6.7
2023-02-19T05:35:02.322Z,6.6
2023-02-19T05:36:02.281Z,6.7
2023-02-19T05:37:02.202Z,6.7
2023-02-19T05:38:02.158Z,6.7
2023-02-19T05:39:02.099Z,6.7
2023-02-19T05:40:02.076Z,6.7
2023-02-19T05:41:02.050Z,6.7
2023-02-19T05:42:01.978Z,6.8
2023-02-19T05:43:01.864Z,6.8
2023-02-19T05:44:01.770Z,6.8
2023-02-19T05:45:01.736Z,6.7
2023-02-19T05:46:01.713Z,6.8
2023-02-19T05:47:01.496Z,6.7
2023-02-19T05:48:01.428Z,6.8
2023-02-19T05:49:01.354Z,6.7
2023-02-19T05:50:02.282Z,6.7
2023-02-19T05:51:02.282Z,6.8
2023-02-19T05:52:02.265Z,6.7
2023-02-19T05:53:02.189Z,6.8
2023-02-19T05:54:02.115Z,6.7
2023-02-19T05:55:02.082Z,6.8
2023-02-19T05:56:02.037Z,6.8
2023-02-19T05:57:01.964Z,6.7
2023-02-19T05:58:01.900Z,6.8
2023-02-19T05:59:01.864Z,6.8
2023-02-19T06:00:01.850Z,6.8
2023-02-19T06:01:01.712Z,6.8
2023-02-19T06:02:01.554Z,6.8
2023-02-19T06:03:01.515Z,6.8
2023-02-19T06:04:01.408Z,6.9
2023-02-19T06:05:01.344Z,6.9
2023-02-19T06:06:02.249Z,6.8
2023-02-19T06:07:02.217Z,6.8
2023-02-19T06:08:02.209Z,6.9
2023-02-19T06:09:02.182Z,6.9
2023-02-19T06:10:02.163Z,6.8
2023-02-19T06:11:02.077Z,6.9
2023-02-19T06:12:02.025Z,6.8
2023-02-19T06:13:01.982Z,6.9
2023-02-19T06:14:01.915Z,6.9
2023-02-19T06:15:01.883Z,6.9
2023-02-19T06:16:01.862Z,6.9
2023-02-19T06:17:01.837Z,6.9
2023-02-19T06:18:01.776Z,7
2023-02-19T06:19:01.706Z,6.9
2023-02-19T06:20:01.699Z,7
2023-02-19T06:21:01.599Z,6.9
2023-02-19T06:22:01.515Z,6.9
2023-02-19T06:23:01.433Z,7
2023-02-19T06:24:01.406Z,7
2023-02-19T06:25:02.326Z,7
2023-02-19T06:26:02.234Z,6.9
2023-02-19T06:27:02.241Z,6.9
2023-02-19T06:28:02.230Z,6.9
2023-02-19T06:29:02.211Z,6.9
2023-02-19T06:30:01.863Z,7
2023-02-19T06:31:01.777Z,7
2023-02-19T06:32:01.673Z,7.1
2023-02-19T06:33:01.827Z,7.1
2023-02-19T06:34:01.756Z,7.1
2023-02-19T06:35:01.672Z,7
2023-02-19T06:36:01.622Z,7.1
2023-02-19T06:37:01.517Z,7.1
2023-02-19T06:38:01.422Z,7
2023-02-19T06:39:01.381Z,7
2023-02-19T06:40:01.354Z,7
2023-02-19T06:41:02.263Z,6.9
2023-02-19T06:42:02.211Z,7
2023-02-19T06:43:02.208Z,6.9
2023-02-19T06:44:02.150Z,6.9
2023-02-19T06:45:02.148Z,6.9
2023-02-19T06:46:02.058Z,6.9
2023-02-19T06:47:01.632Z,7
2023-02-19T06:48:01.572Z,7
2023-02-19T06:49:01.503Z,7
2023-02-19T06:50:01.397Z,7
2023-02-19T06:51:01.490Z,7
2023-02-19T06:52:02.319Z,6.9
2023-02-19T06:53:02.314Z,6.9
2023-02-19T06:54:02.282Z,7
2023-02-19T06:55:02.300Z,6.9
2023-02-19T06:56:02.214Z,7
2023-02-19T06:57:02.147Z,6.9
2023-02-19T06:58:02.114Z,7
2023-02-19T06:59:02.068Z,6.9
2023-02-19T07:00:02.084Z,7
2023-02-19T07:01:01.988Z,6.9
2023-02-19T07:02:02.053Z,7
2023-02-19T07:03:03.351Z,7
2023-02-19T07:04:02.350Z,7
2023-02-19T07:05:02.261Z,7
2023-02-19T07:06:02.214Z,7
2023-02-19T07:07:02.153Z,7
2023-02-19T07:08:02.125Z,6.9
2023-02-19T07:09:02.083Z,6.9
2023-02-19T07:10:02.044Z,6.9
2023-02-19T07:11:01.964Z,7
2023-02-19T07:12:01.933Z,6.9
2023-02-19T07:13:01.852Z,6.9
2023-02-19T07:14:01.736Z,7
2023-02-19T07:15:01.704Z,6.9
2023-02-19T07:16:01.614Z,6.9
2023-02-19T07:17:01.394Z,6.9
2023-02-19T07:18:01.992Z,7
2023-02-19T07:19:01.755Z,7
2023-02-19T07:20:03.095Z,7
2023-02-19T07:21:01.872Z,6.9
2023-02-19T07:22:01.768Z,6.9
2023-02-19T07:23:01.700Z,6.9
2023-02-19T07:24:01.590Z,6.9
2023-02-19T07:25:01.478Z,6.9
2023-02-19T07:26:01.420Z,6.9
2023-02-19T07:27:01.366Z,7
2023-02-19T07:28:02.275Z,7
2023-02-19T07:29:02.287Z,7
2023-02-19T07:30:02.298Z,7
2023-02-19T07:31:02.268Z,7
2023-02-19T07:32:02.281Z,7
2023-02-19T07:33:02.295Z,7
2023-02-19T07:34:02.263Z,7
2023-02-19T07:35:02.254Z,7
2023-02-19T07:36:02.250Z,7
2023-02-19T07:37:02.205Z,7
2023-02-19T07:38:02.190Z,7
2023-02-19T07:39:02.096Z,7.1
2023-02-19T07:40:02.115Z,7
2023-02-19T07:41:02.060Z,7
2023-02-19T07:42:01.987Z,7
2023-02-19T07:43:01.882Z,7
2023-02-19T07:44:01.834Z,7.1
2023-02-19T07:45:01.783Z,7.1
2023-02-19T07:46:01.720Z,7.1
2023-02-19T07:47:01.641Z,7.1
2023-02-19T07:48:01.599Z,7
2023-02-19T07:49:01.559Z,7.1
2023-02-19T07:50:01.470Z,7.2
2023-02-19T07:51:01.402Z,7.2
2023-02-19T07:52:01.345Z,7.2
2023-02-19T07:53:02.302Z,7.1
2023-02-19T07:54:02.254Z,7.1
2023-02-19T07:55:02.251Z,7.2
2023-02-19T07:56:02.226Z,7.2
2023-02-19T07:57:02.187Z,7.2
2023-02-19T07:58:02.202Z,7.2
2023-02-19T07:59:01.439Z,7.2
2023-02-19T08:00:01.360Z,7.3
2023-02-19T08:01:02.365Z,7.2
2023-02-19T08:02:01.376Z,7.3
2023-02-19T08:03:01.341Z,7.2
2023-02-19T08:04:02.295Z,7.3
2023-02-19T08:05:02.290Z,7.3
2023-02-19T08:06:02.243Z,7.3
2023-02-19T08:07:02.245Z,7.4
2023-02-19T08:08:02.227Z,7.5
2023-02-19T08:09:02.218Z,7.5
2023-02-19T08:10:02.201Z,7.6
2023-02-19T08:11:02.151Z,7.5
2023-02-19T08:12:02.121Z,7.5
2023-02-19T08:13:02.103Z,7.4
2023-02-19T08:14:02.079Z,7.4
2023-02-19T08:15:01.987Z,7.5
2023-02-19T08:16:14.722Z,7.4
2023-02-19T08:17:01.517Z,7.5
2023-02-19T08:18:01.396Z,7.5
2023-02-19T08:19:01.332Z,7.4
2023-02-19T08:20:02.293Z,7.4
2023-02-19T08:21:02.314Z,7.5
2023-02-19T08:22:02.289Z,7.5
2023-02-19T08:23:02.235Z,7.6
2023-02-19T08:24:02.183Z,7.5
2023-02-19T08:25:02.145Z,7.4
2023-02-19T08:26:02.108Z,7.4
2023-02-19T08:27:02.081Z,7.5
2023-02-19T08:28:02.052Z,7.4
2023-02-19T08:29:01.983Z,7.4
2023-02-19T08:30:02.003Z,7.4
2023-02-19T08:31:02.041Z,7.3
2023-02-19T08:32:02.228Z,7.3
2023-02-19T08:33:02.495Z,7.4
2023-02-19T08:34:01.329Z,7.4
2023-02-19T08:35:02.262Z,7.4
2023-02-19T08:36:04.480Z,7.3
2023-02-19T08:37:02.297Z,7.3
2023-02-19T08:38:02.262Z,7.3
2023-02-19T08:39:02.171Z,7.4
2023-02-19T08:40:02.149Z,7.4
2023-02-19T08:41:02.075Z,7.4
2023-02-19T08:42:01.989Z,7.4
2023-02-19T08:43:01.853Z,7.4
2023-02-19T08:44:01.868Z,7.4
2023-02-19T08:45:01.772Z,7.4
2023-02-19T08:46:01.757Z,7.4
2023-02-19T08:47:01.700Z,7.4
2023-02-19T08:48:01.687Z,7.4
2023-02-19T08:49:01.534Z,7.4
2023-02-19T08:50:01.454Z,7.4
2023-02-19T08:51:01.350Z,7.4
2023-02-19T08:52:02.321Z,7.4
2023-02-19T08:53:02.254Z,7.5
2023-02-19T08:54:02.223Z,7.5
2023-02-19T08:55:01.459Z,7.5
2023-02-19T08:56:01.707Z,7.5
2023-02-19T08:57:01.641Z,7.5
2023-02-19T08:58:01.607Z,7.5
2023-02-19T08:59:01.538Z,7.4
2023-02-19T09:00:01.522Z,7.4
2023-02-19T09:01:01.544Z,7.4
2023-02-19T09:02:01.566Z,7.5
2023-02-19T09:03:01.541Z,7.5
2023-02-19T09:04:01.458Z,7.4
2023-02-19T09:05:01.368Z,7.4
2023-02-19T09:06:02.326Z,7.4
2023-02-19T09:07:02.249Z,7.5
2023-02-19T09:08:02.223Z,7.5
2023-02-19T09:09:02.130Z,7.4
2023-02-19T09:10:02.098Z,7.5
2023-02-19T09:11:01.998Z,7.5
2023-02-19T09:12:02.028Z,7.4
2023-02-19T09:13:01.894Z,7.4
2023-02-19T09:14:01.812Z,7.4
2023-02-19T09:15:01.692Z,7.5
2023-02-19T09:16:01.776Z,7.4
2023-02-19T09:17:01.904Z,7.4
2023-02-19T09:18:01.799Z,7.4
2023-02-19T09:19:01.846Z,7.4
2023-02-19T09:20:01.722Z,7.4
2023-02-19T09:21:01.736Z,7.5
2023-02-19T09:22:01.524Z,7.4
2023-02-19T09:23:01.563Z,7.4
2023-02-19T09:24:01.392Z,7.4
2023-02-19T09:25:01.379Z,7.4
2023-02-19T09:26:02.312Z,7.3
2023-02-19T09:27:02.168Z,7.1
2023-02-19T09:28:02.203Z,7.2
2023-02-19T09:29:02.056Z,7.1
2023-02-19T09:30:02.093Z,7.1
2023-02-19T09:31:01.961Z,7.2
2023-02-19T09:32:01.448Z,7.1
2023-02-19T09:33:01.495Z,7.1
2023-02-19T09:34:01.387Z,7.1
2023-02-19T09:35:02.399Z,7
2023-02-19T09:36:02.246Z,6.9
2023-02-19T09:37:02.293Z,6.9
2023-02-19T09:38:02.134Z,6.9
2023-02-19T09:39:02.177Z,6.9
2023-02-19T09:40:02.026Z,6.9
2023-02-19T09:41:02.027Z,6.9
2023-02-19T09:42:01.925Z,7
2023-02-19T09:43:01.974Z,6.9
2023-02-19T09:44:01.933Z,6.9
2023-02-19T09:45:01.896Z,6.8
2023-02-19T09:46:01.709Z,6.9
2023-02-19T09:47:01.922Z,6.8
2023-02-19T09:48:01.938Z,6.9
2023-02-19T09:49:01.816Z,6.7
2023-02-19T09:50:01.764Z,6.8
2023-02-19T09:51:01.799Z,6.8
2023-02-19T09:52:01.625Z,6.8
2023-02-19T09:53:01.596Z,6.9
2023-02-19T09:54:01.426Z,6.8
2023-02-19T09:55:01.455Z,6.8
2023-02-19T09:56:02.417Z,6.9
2023-02-19T09:57:02.292Z,6.9
2023-02-19T09:58:01.756Z,6.9
2023-02-19T09:59:01.640Z,6.8
2023-02-19T10:00:01.690Z,6.9
2023-02-19T10:01:01.545Z,6.9
2023-02-19T10:02:02.085Z,6.9
2023-02-19T10:03:02.128Z,7
2023-02-19T10:04:01.913Z,7
2023-02-19T10:05:01.908Z,6.9
2023-02-19T10:06:01.916Z,6.8
2023-02-19T10:07:01.726Z,6.7
2023-02-19T10:08:01.771Z,6.5
2023-02-19T10:09:01.615Z,6.4
2023-02-19T10:10:01.599Z,6
2023-02-19T10:11:01.382Z,6.1
2023-02-19T10:12:01.445Z,6
2023-02-19T10:13:02.308Z,5.9
2023-02-19T10:14:02.214Z,5.9
2023-02-19T10:15:02.251Z,5.9
2023-02-19T10:16:02.242Z,5.9
2023-02-19T10:17:02.096Z,5.9
2023-02-19T10:18:02.134Z,5.9
2023-02-19T10:19:02.023Z,5.8
2023-02-19T10:20:02.000Z,5.9
2023-02-19T10:21:02.057Z,5.8
2023-02-19T10:22:01.902Z,5.9
2023-02-19T10:23:01.868Z,5.7
2023-02-19T10:24:01.925Z,5.8
2023-02-19T10:25:01.769Z,5.8
2023-02-19T10:26:01.683Z,5.9
2023-02-19T10:27:01.683Z,5.9
2023-02-19T10:28:01.543Z,5.7
2023-02-19T10:29:01.473Z,5.7
2023-02-19T10:30:01.344Z,5.8
2023-02-19T10:31:01.480Z,5.9
2023-02-19T10:32:01.613Z,6
2023-02-19T10:33:01.653Z,6
2023-02-19T10:34:01.440Z,6.1
2023-02-19T10:35:01.446Z,6.1
2023-02-19T10:36:02.408Z,6.2
2023-02-19T10:37:02.262Z,6.2
2023-02-19T10:38:02.273Z,6.3
2023-02-19T10:39:02.107Z,6.3
2023-02-19T10:40:02.152Z,6.1
2023-02-19T10:41:01.975Z,6.2
2023-02-19T10:42:01.898Z,6.2
2023-02-19T10:43:01.912Z,6.1
2023-02-19T10:44:01.752Z,6
2023-02-19T10:45:01.806Z,6.1
2023-02-19T10:46:01.768Z,6.2
2023-02-19T10:47:01.844Z,6
2023-02-19T10:48:01.933Z,6
2023-02-19T10:49:01.839Z,6.2
2023-02-19T10:50:04.353Z,6.3
2023-02-19T10:51:01.565Z,6.2
2023-02-19T10:52:01.522Z,6.2
2023-02-19T10:53:01.436Z,5.9
2023-02-19T10:54:01.361Z,6
2023-02-19T10:55:02.281Z,5.9
2023-02-19T10:56:02.234Z,5.6
2023-02-19T10:57:02.222Z,5.6
2023-02-19T10:58:02.145Z,5.8
2023-02-19T10:59:02.093Z,5.8
2023-02-19T11:00:02.054Z,5.8
2023-02-19T11:01:02.012Z,5.6
2023-02-19T11:02:01.982Z,5.8
2023-02-19T11:03:02.081Z,5.6
2023-02-19T11:04:02.098Z,5.6
2023-02-19T11:05:02.000Z,5.6
2023-02-19T11:06:01.944Z,5.6
2023-02-19T11:07:01.841Z,5.6
2023-02-19T11:08:01.791Z,5.6
2023-02-19T11:09:01.686Z,5.7
2023-02-19T11:10:01.642Z,5.7
2023-02-19T11:11:01.563Z,5.6
2023-02-19T11:12:01.523Z,5.6
2023-02-19T11:13:01.453Z,5.6
2023-02-19T11:14:01.391Z,5.7
2023-02-19T11:15:01.343Z,5.8
2023-02-19T11:16:01.414Z,5.8
2023-02-19T11:17:01.437Z,5.7
2023-02-19T11:18:01.373Z,5.7
2023-02-19T11:19:01.329Z,5.7
2023-02-19T11:20:02.292Z,5.7
2023-02-19T11:21:02.213Z,5.6
2023-02-19T11:22:02.194Z,5.7
2023-02-19T11:23:02.105Z,5.6
2023-02-19T11:24:02.017Z,5.5
2023-02-19T11:25:02.015Z,5.5
2023-02-19T11:26:01.946Z,5.4
2023-02-19T11:27:01.880Z,5.6
2023-02-19T11:28:01.859Z,5.6
2023-02-19T11:29:01.802Z,5.6
2023-02-19T11:30:01.754Z,5.5
2023-02-19T11:31:01.691Z,5.6
2023-02-19T11:32:01.829Z,5.5
2023-02-19T11:33:01.810Z,5.5
2023-02-19T11:34:01.674Z,5.2
2023-02-19T11:35:01.618Z,5.4
2023-02-19T11:36:03.607Z,5.3
2023-02-19T11:37:01.382Z,5.4
2023-02-19T11:38:01.429Z,5.4
2023-02-19T11:39:02.374Z,5.5
2023-02-19T11:40:02.240Z,5.6
2023-02-19T11:41:02.247Z,5.6
2023-02-19T11:42:02.115Z,5.4
2023-02-19T11:43:02.121Z,5.4
2023-02-19T11:44:01.979Z,5.3
2023-02-19T11:45:01.930Z,5.3
2023-02-19T11:46:02.053Z,5.1
2023-02-19T11:47:01.988Z,5.2
2023-02-19T11:48:01.893Z,5.4
2023-02-19T11:49:01.955Z,5.2
2023-02-19T11:50:01.746Z,5.1
2023-02-19T11:51:01.595Z,5.2
2023-02-19T11:52:01.626Z,5.3
2023-02-19T11:53:01.436Z,5.4
2023-02-19T11:54:01.444Z,5.4
2023-02-19T11:55:01.375Z,5.2
2023-02-19T11:56:02.405Z,5.3
2023-02-19T11:57:02.240Z,5.3
2023-02-19T11:58:02.234Z,5.4
2023-02-19T11:59:02.125Z,5.4
2023-02-19T12:00:02.188Z,5.4
2023-02-19T12:01:02.061Z,5.4
2023-02-19T12:02:01.335Z,5.4
2023-02-19T12:03:02.344Z,5.2
2023-02-19T12:04:02.193Z,5.4
2023-02-19T12:05:02.278Z,5.4
2023-02-19T12:06:02.309Z,5.5
2023-02-19T12:07:02.346Z,5.4
2023-02-19T12:08:02.178Z,5.1
2023-02-19T12:09:02.232Z,5
2023-02-19T12:10:02.082Z,5.3
2023-02-19T12:11:02.126Z,5
2023-02-19T12:12:02.016Z,5
2023-02-19T12:13:01.942Z,5
2023-02-19T12:14:01.975Z,5
2023-02-19T12:15:01.795Z,5.1
2023-02-19T12:16:01.767Z,4.9
2023-02-19T12:17:01.884Z,5.1
2023-02-19T12:18:01.934Z,5.1
2023-02-19T12:19:01.711Z,5.1
2023-02-19T12:20:01.813Z,5.1
2023-02-19T12:21:01.639Z,5.1
2023-02-19T12:22:01.705Z,5.1
2023-02-19T12:23:01.575Z,5
2023-02-19T12:24:01.583Z,5
2023-02-19T12:25:01.408Z,4.9
2023-02-19T12:26:01.425Z,5
2023-02-19T12:27:01.323Z,5
2023-02-19T12:28:02.381Z,4.9
2023-02-19T12:29:02.243Z,5
2023-02-19T12:30:02.337Z,4.8
2023-02-19T12:31:02.201Z,4.7
2023-02-19T12:32:02.132Z,4.7
2023-02-19T12:33:02.090Z,4.8
2023-02-19T12:34:01.948Z,4.8
2023-02-19T12:35:01.896Z,4.7
2023-02-19T12:36:01.908Z,4.8
2023-02-19T12:37:01.731Z,4.9
2023-02-19T12:38:01.681Z,4.9
2023-02-19T12:39:01.722Z,5
2023-02-19T12:40:01.604Z,5.1
2023-02-19T12:41:01.490Z,5.1
2023-02-19T12:42:01.384Z,5.1
2023-02-19T12:43:01.432Z,5.1
2023-02-19T12:44:02.372Z,5.1
2023-02-19T12:45:02.250Z,5.1
2023-02-19T12:46:02.312Z,5
2023-02-19T12:47:01.356Z,5
2023-02-19T12:48:02.393Z,4.7
2023-02-19T12:49:02.244Z,4.9
2023-02-19T12:50:02.296Z,4.7
2023-02-19T12:51:02.123Z,4.8
2023-02-19T12:52:02.141Z,4.7
2023-02-19T12:53:02.032Z,4.8
2023-02-19T12:54:01.918Z,4.8
2023-02-19T12:55:01.923Z,4.7
2023-02-19T12:56:01.754Z,4.7
2023-02-19T12:57:01.674Z,4.8
2023-02-19T12:58:01.727Z,4.8
2023-02-19T12:59:01.523Z,4.9
2023-02-19T13:00:01.518Z,4.9
2023-02-19T13:01:01.461Z,5
2023-02-19T13:02:01.638Z,5
2023-02-19T13:03:01.588Z,5
2023-02-19T13:04:01.426Z,4.9
2023-02-19T13:05:01.457Z,4.9
2023-02-19T13:06:01.320Z,4.9
2023-02-19T13:07:02.395Z,4.9
2023-02-19T13:08:02.221Z,4.9
2023-02-19T13:09:06.936Z,4.8
2023-02-19T13:10:02.113Z,4.9
2023-02-19T13:11:02.169Z,5
2023-02-19T13:12:02.019Z,4.8
2023-02-19T13:13:02.005Z,4.9
2023-02-19T13:14:02.084Z,4.8
2023-02-19T13:15:01.902Z,4.9
2023-02-19T13:16:01.820Z,4.9
2023-02-19T13:17:01.797Z,4.8
2023-02-19T13:18:01.761Z,4.7
2023-02-19T13:19:01.694Z,4.8
2023-02-19T13:20:01.678Z,4.8
2023-02-19T13:21:01.505Z,4.8
2023-02-19T13:22:01.534Z,4.8
2023-02-19T13:23:01.364Z,4.7
2023-02-19T13:24:02.422Z,4.7
2023-02-19T13:25:02.255Z,4.7
2023-02-19T13:26:02.322Z,4.6
2023-02-19T13:27:02.162Z,4.6
2023-02-19T13:28:02.211Z,4.6
2023-02-19T13:29:02.069Z,4.6
2023-02-19T13:30:02.175Z,4.7
2023-02-19T13:31:02.176Z,4.7
2023-02-19T13:32:02.410Z,4.7
2023-02-19T13:33:01.710Z,4.8
2023-02-19T13:34:01.492Z,4.8
2023-02-19T13:35:01.840Z,4.6
2023-02-19T13:36:01.729Z,4.6
2023-02-19T13:37:01.789Z,4.8
2023-02-19T13:38:01.601Z,5
2023-02-19T13:39:01.651Z,5.1
2023-02-19T13:40:01.445Z,5.1
2023-02-19T13:41:01.465Z,5.2
2023-02-19T13:42:02.773Z,5.2
2023-02-19T13:43:01.482Z,5
2023-02-19T13:44:01.502Z,5
2023-02-19T13:45:01.411Z,4.9
2023-02-19T13:46:01.489Z,5
2023-02-19T13:47:02.319Z,4.9
2023-02-19T13:48:02.188Z,4.9
2023-02-19T13:49:02.216Z,4.7
2023-02-19T13:50:02.139Z,4.8
2023-02-19T13:51:02.213Z,4.9
2023-02-19T13:52:02.111Z,4.8
2023-02-19T13:53:02.057Z,4.8